createdAt,value
2022-09-12T00:01:09.369Z,11.23
2022-09-12T00:03:36.768Z,11.22
2022-09-12T00:06:09.705Z,11.17
2022-09-12T00:08:38.538Z,11.19
2022-09-12T00:11:08.105Z,11.15
2022-09-12T00:13:39.529Z,11.19
2022-09-12T00:16:10.194Z,11.21
2022-09-12T00:18:36.940Z,11.18
2022-09-12T00:21:04.857Z,11.14
2022-09-12T00:23:34.833Z,11.09
2022-09-12T00:26:05.745Z,11.09
2022-09-12T00:28:35.694Z,11.06
2022-09-12T00:31:10.605Z,11.07
2022-09-12T00:33:37.230Z,10.98
2022-09-12T00:36:10.342Z,10.96
2022-09-12T00:38:40.533Z,11.02
2022-09-12T00:41:08.258Z,10.98
2022-09-12T00:43:52.136Z,10.98
2022-09-12T00:46:36.584Z,10.97
2022-09-12T00:49:05.390Z,10.86
2022-09-12T00:51:36.684Z,10.86
2022-09-12T00:54:10.671Z,10.81
2022-09-12T00:56:41.025Z,10.80
2022-09-12T00:59:16.660Z,10.79
2022-09-12T01:01:46.673Z,10.71
2022-09-12T01:04:13.756Z,10.66
2022-09-12T01:06:45.169Z,10.69
2022-09-12T01:09:17.066Z,10.71
2022-09-12T01:11:47.159Z,10.71
2022-09-12T01:14:16.857Z,10.66
2022-09-12T01:16:45.426Z,10.60
2022-09-12T01:19:44.194Z,10.66
2022-09-12T01:22:35.465Z,10.69
2022-09-12T01:25:19.826Z,10.69
2022-09-12T01:28:04.577Z,10.59
2022-09-12T01:30:55.650Z,10.61
2022-09-12T01:33:32.012Z,10.62
2022-09-12T01:36:29.789Z,10.55
2022-09-12T01:39:02.062Z,10.48
2022-09-12T01:41:56.401Z,10.42
2022-09-12T01:44:41.590Z,10.41
2022-09-12T01:47:25.773Z,10.35
2022-09-12T01:50:09.604Z,10.30
2022-09-12T01:52:46.528Z,10.24
2022-09-12T01:55:30.827Z,10.26
2022-09-12T01:58:20.752Z,10.23
2022-09-12T02:00:50.343Z,10.21
2022-09-12T02:03:21.447Z,10.19
2022-09-12T02:05:57.494Z,10.23
2022-09-12T02:08:37.996Z,10.22
2022-09-12T02:11:09.947Z,10.15
2022-09-12T02:13:43.194Z,10.13
2022-09-12T02:16:14.055Z,10.09
2022-09-12T02:18:47.225Z,10.09
2022-09-12T02:21:13.945Z,10.10
2022-09-12T02:23:48.376Z,10.06
2022-09-12T02:26:23.383Z,10.07
2022-09-12T02:28:52.265Z,10.04
2022-09-12T02:31:28.981Z,9.99
2022-09-12T02:34:16.474Z,10.01
2022-09-12T02:37:11.225Z,10.03
2022-09-12T02:39:44.510Z,10.06
2022-09-12T02:42:11.923Z,9.96
2022-09-12T02:44:38.686Z,9.96
2022-09-12T02:47:15.616Z,9.94
2022-09-12T02:49:42.164Z,9.93
2022-09-12T02:52:08.755Z,9.89
2022-09-12T02:54:39.602Z,9.94
2022-09-12T02:57:20.640Z,10.04
2022-09-12T02:59:54.145Z,10.00
2022-09-12T03:02:39.471Z,9.93
2022-09-12T03:05:27.231Z,9.91
2022-09-12T03:08:15.510Z,9.91
2022-09-12T03:11:06.331Z,9.88
2022-09-12T03:14:06.563Z,9.86
2022-09-12T03:16:53.823Z,9.87
2022-09-12T03:19:33.927Z,9.81
2022-09-12T03:22:21.780Z,9.77
2022-09-12T03:25:06.553Z,9.71
2022-09-12T03:27:48.289Z,9.73
2022-09-12T03:30:14.859Z,9.70
2022-09-12T03:32:52.594Z,9.73
2022-09-12T03:35:23.265Z,9.66
2022-09-12T03:37:50.937Z,9.66
2022-09-12T03:40:18.058Z,9.64
2022-09-12T03:42:44.582Z,9.65
2022-09-12T03:45:11.461Z,9.66
2022-09-12T03:47:39.794Z,9.77
2022-09-12T03:50:07.168Z,9.81
2022-09-12T03:52:33.684Z,9.86
2022-09-12T03:55:05.493Z,9.84
2022-09-12T03:57:32.077Z,9.94
2022-09-12T03:59:58.642Z,10.05
2022-09-12T04:02:25.270Z,10.12
2022-09-12T04:04:51.799Z,10.19
2022-09-12T04:07:21.725Z,10.21
2022-09-12T04:09:48.482Z,10.25
2022-09-12T04:12:15.166Z,10.36
2022-09-12T04:14:41.768Z,10.39
2022-09-12T04:17:10.220Z,10.38
2022-09-12T04:19:36.947Z,10.40
2022-09-12T04:22:03.864Z,10.38
2022-09-12T04:24:30.582Z,10.39
2022-09-12T04:26:57.442Z,10.40
2022-09-12T04:29:24.235Z,10.40
2022-09-12T04:32:01.305Z,10.38
2022-09-12T04:34:32.544Z,10.44
2022-09-12T04:36:59.100Z,10.46
2022-09-12T04:39:27.441Z,10.52
2022-09-12T04:41:54.378Z,10.53
2022-09-12T04:44:20.895Z,10.57
2022-09-12T04:46:49.523Z,10.59
2022-09-12T04:49:19.525Z,10.55
2022-09-12T04:51:46.588Z,10.54
2022-09-12T04:54:17.781Z,10.58
2022-09-12T04:56:47.297Z,10.61
2022-09-12T04:59:15.773Z,10.62
2022-09-12T05:01:48.956Z,10.73
2022-09-12T05:04:15.822Z,10.75
2022-09-12T05:06:43.456Z,10.80
2022-09-12T05:09:16.357Z,10.89
2022-09-12T05:14:33.242Z,11.34
2022-09-12T05:17:01.834Z,11.61
2022-09-12T05:19:30.293Z,11.90
2022-09-12T05:22:00.821Z,12.24
2022-09-12T05:24:27.435Z,12.51
2022-09-12T05:26:54.183Z,12.84
2022-09-12T05:29:20.815Z,13.21
2022-09-12T05:31:50.175Z,13.66
2022-09-12T05:34:19.945Z,14.03
2022-09-12T05:36:46.748Z,14.42
2022-09-12T05:39:13.607Z,14.75
2022-09-12T05:41:43.677Z,14.98
2022-09-12T05:44:14.444Z,15.40
2022-09-12T05:46:50.470Z,15.38
2022-09-12T05:49:17.168Z,15.37
2022-09-12T05:51:45.510Z,15.22
2022-09-12T05:54:14.335Z,15.28
2022-09-12T05:56:45.531Z,15.46
2022-09-12T05:59:20.597Z,16.00
2022-09-12T06:01:49.237Z,16.01
2022-09-12T06:04:16.363Z,16.08
2022-09-12T06:06:48.848Z,16.15
2022-09-12T06:09:18.408Z,16.42
2022-09-12T06:11:46.006Z,16.37
2022-09-12T06:14:15.018Z,16.17
2022-09-12T06:16:50.114Z,16.37
2022-09-12T06:19:18.918Z,16.36
2022-09-12T06:21:49.601Z,16.65
2022-09-12T06:24:17.647Z,16.67
2022-09-12T06:26:44.423Z,16.98
2022-09-12T06:29:14.069Z,17.25
2022-09-12T06:31:44.270Z,17.22
2022-09-12T06:34:14.311Z,17.40
2022-09-12T06:36:43.879Z,17.79
2022-09-12T06:39:13.703Z,17.97
2022-09-12T06:41:43.953Z,18.12
2022-09-12T06:44:16.758Z,18.23
2022-09-12T06:46:45.526Z,18.42
2022-09-12T06:49:12.315Z,18.61
2022-09-12T06:51:41.395Z,18.82
2022-09-12T06:54:07.921Z,19.15
2022-09-12T06:56:34.383Z,19.35
2022-09-12T06:59:01.067Z,18.98
2022-09-12T07:01:31.753Z,18.60
2022-09-12T07:04:00.990Z,18.87
2022-09-12T07:06:35.475Z,18.99
2022-09-12T07:09:06.528Z,19.04
2022-09-12T07:11:40.540Z,19.39
2022-09-12T07:14:12.068Z,19.75
2022-09-12T07:16:38.752Z,19.79
2022-09-12T07:19:07.670Z,20.07
2022-09-12T07:21:39.000Z,19.95
2022-09-12T07:24:06.337Z,20.08
2022-09-12T07:26:37.402Z,20.51
2022-09-12T07:29:32.363Z,20.10
2022-09-12T07:31:59.741Z,20.49
2022-09-12T07:34:29.690Z,20.64
2022-09-12T07:36:56.566Z,19.69
2022-09-12T07:39:24.409Z,19.18
2022-09-12T07:41:51.404Z,19.67
2022-09-12T07:44:17.843Z,20.07
2022-09-12T07:46:46.600Z,19.63
2022-09-12T07:49:13.469Z,19.85
2022-09-12T07:51:40.523Z,19.73
2022-09-12T07:54:16.882Z,19.92
2022-09-12T07:56:43.550Z,20.07
2022-09-12T07:59:10.264Z,20.52
2022-09-12T08:01:38.331Z,20.72
2022-09-12T08:04:05.260Z,20.28
2022-09-12T08:06:36.167Z,20.35
2022-09-12T08:09:03.686Z,20.91
2022-09-12T08:11:30.634Z,19.96
2022-09-12T08:13:58.288Z,20.42
2022-09-12T08:16:27.719Z,20.70
2022-09-12T08:21:22.968Z,20.77
2022-09-12T08:24:02.890Z,20.83
2022-09-12T08:26:30.629Z,20.82
2022-09-12T08:28:57.364Z,20.98
2022-09-12T08:31:28.668Z,20.81
2022-09-12T08:33:58.573Z,21.34
2022-09-12T08:36:27.736Z,21.44
2022-09-12T08:39:00.492Z,21.34
2022-09-12T08:41:44.404Z,21.50
2022-09-12T08:44:29.324Z,21.87
2022-09-12T08:47:14.739Z,22.04
2022-09-12T08:50:12.678Z,22.08
2022-09-12T08:53:02.886Z,22.07
2022-09-12T08:56:04.551Z,21.80
2022-09-12T08:58:39.542Z,21.75
2022-09-12T09:01:17.864Z,21.89
2022-09-12T09:03:48.449Z,22.04
2022-09-12T09:06:30.967Z,22.31
2022-09-12T09:09:04.987Z,22.42
2022-09-12T09:11:52.133Z,22.38
2022-09-12T09:14:49.040Z,22.05
2022-09-12T09:17:30.450Z,22.20
2022-09-12T09:20:28.780Z,22.16
2022-09-12T09:23:35.294Z,22.56
2022-09-12T09:26:27.358Z,22.94
2022-09-12T09:28:58.030Z,23.38
2022-09-12T09:31:26.321Z,23.49
2022-09-12T09:33:57.564Z,23.47
2022-09-12T09:36:36.358Z,22.74
2022-09-12T09:39:06.131Z,23.07
2022-09-12T09:42:00.532Z,23.57
2022-09-12T09:44:29.831Z,23.62
2022-09-12T09:46:59.036Z,23.62
2022-09-12T09:49:30.676Z,23.87
2022-09-12T09:52:00.970Z,23.85
2022-09-12T09:54:41.324Z,24.10
2022-09-12T09:57:37.919Z,23.78
2022-09-12T10:00:28.464Z,23.94
2022-09-12T10:03:13.376Z,24.32
2022-09-12T10:05:52.607Z,24.71
2022-09-12T10:08:30.278Z,25.02
2022-09-12T10:11:00.672Z,25.23
2022-09-12T10:13:43.219Z,25.17
2022-09-12T10:16:21.209Z,24.68
2022-09-12T10:18:49.370Z,24.93
2022-09-12T10:21:18.932Z,24.74
2022-09-12T10:23:48.067Z,24.74
2022-09-12T10:26:19.357Z,25.02
2022-09-12T10:28:53.826Z,25.49
2022-09-12T10:31:33.150Z,25.29
2022-09-12T10:34:02.724Z,25.30
2022-09-12T10:36:38.567Z,25.32
2022-09-12T10:39:06.962Z,25.57
2022-09-12T10:41:39.154Z,26.06
2022-09-12T10:44:10.435Z,26.16
2022-09-12T10:46:39.275Z,26.38
2022-09-12T10:49:27.217Z,26.36
2022-09-12T10:51:55.020Z,25.96
2022-09-12T10:54:25.206Z,26.11
2022-09-12T10:56:58.936Z,26.51
2022-09-12T10:59:51.653Z,26.57
2022-09-12T11:02:30.506Z,26.27
2022-09-12T11:05:18.356Z,26.59
2022-09-12T11:08:09.144Z,26.10
2022-09-12T11:10:59.892Z,26.62
2022-09-12T11:13:59.395Z,26.41
2022-09-12T11:16:49.071Z,26.92
2022-09-12T11:19:29.043Z,26.42
2022-09-12T11:22:31.950Z,26.53
2022-09-12T11:25:11.053Z,26.72
2022-09-12T11:28:04.527Z,26.49
2022-09-12T11:30:45.722Z,26.77
2022-09-12T11:33:32.827Z,26.96
2022-09-12T11:36:05.243Z,27.14
2022-09-12T11:38:50.846Z,26.98
2022-09-12T11:41:29.287Z,27.00
2022-09-12T11:43:58.991Z,26.91
2022-09-12T11:46:34.509Z,26.35
2022-09-12T11:49:11.852Z,26.38
2022-09-12T11:51:56.550Z,26.86
2022-09-12T11:54:28.852Z,27.20
2022-09-12T11:57:31.781Z,27.63
2022-09-12T12:00:05.464Z,27.72
2022-09-12T12:02:49.871Z,28.00
2022-09-12T12:05:26.385Z,27.92
2022-09-12T12:07:58.797Z,27.83
2022-09-12T12:10:44.132Z,27.70
2022-09-12T12:13:24.495Z,27.27
2022-09-12T12:15:59.138Z,27.87
2022-09-12T12:18:28.927Z,27.89
2022-09-12T12:20:56.897Z,28.05
2022-09-12T12:23:30.477Z,28.28
2022-09-12T12:26:00.011Z,27.94
2022-09-12T12:28:50.741Z,27.80
2022-09-12T12:31:18.317Z,27.60
2022-09-12T12:33:45.042Z,27.66
2022-09-12T12:36:35.307Z,27.79
2022-09-12T12:39:33.638Z,27.72
2022-09-12T12:42:01.166Z,27.81
2022-09-12T12:44:47.255Z,28.05
2022-09-12T12:47:27.525Z,28.00
2022-09-12T12:50:20.707Z,27.62
2022-09-12T12:52:57.869Z,27.84
2022-09-12T12:55:27.112Z,27.75
2022-09-12T12:57:56.862Z,27.78
2022-09-12T13:00:26.724Z,27.52
2022-09-12T13:03:08.236Z,27.67
2022-09-12T13:05:47.562Z,27.63
2022-09-12T13:08:16.714Z,27.64
2022-09-12T13:10:59.728Z,27.68
2022-09-12T13:13:35.992Z,27.70
2022-09-12T13:16:04.577Z,27.86
2022-09-12T13:18:44.746Z,27.96
2022-09-12T13:21:19.462Z,27.47
2022-09-12T13:24:02.124Z,27.26
2022-09-12T13:26:39.577Z,27.41
2022-09-12T13:29:15.092Z,27.61
2022-09-12T13:31:46.739Z,27.66
2022-09-12T13:34:22.257Z,27.52
2022-09-12T13:36:58.053Z,27.53
2022-09-12T13:39:29.934Z,27.55
2022-09-12T13:42:08.303Z,27.40
2022-09-12T13:44:57.885Z,27.49
2022-09-12T13:47:38.019Z,27.50
2022-09-12T13:50:07.506Z,27.48
2022-09-12T13:52:37.909Z,27.17
2022-09-12T13:55:27.471Z,27.32
2022-09-12T13:58:06.258Z,27.47
2022-09-12T14:00:36.822Z,27.56
2022-09-12T14:03:43.258Z,27.51
2022-09-12T14:06:12.297Z,27.31
2022-09-12T14:08:41.637Z,27.26
2022-09-12T14:11:11.048Z,27.55
2022-09-12T14:13:39.412Z,27.64
2022-09-12T14:16:09.890Z,27.68
2022-09-12T14:18:38.713Z,27.74
2022-09-12T14:21:31.041Z,27.90
2022-09-12T14:23:59.459Z,27.87
2022-09-12T14:26:27.771Z,27.97
2022-09-12T14:28:58.375Z,28.06
2022-09-12T14:31:30.391Z,28.11
2022-09-12T14:34:12.278Z,28.24
2022-09-12T14:36:44.694Z,28.33
2022-09-12T14:39:32.173Z,28.03
2022-09-12T14:42:06.680Z,28.18
2022-09-12T14:44:40.389Z,28.07
2022-09-12T14:47:20.568Z,27.77
2022-09-12T14:49:53.385Z,27.64
2022-09-12T14:52:27.737Z,27.46
2022-09-12T14:55:02.778Z,27.48
2022-09-12T14:57:39.695Z,27.48
2022-09-12T15:00:16.149Z,27.40
2022-09-12T15:02:43.559Z,27.25
2022-09-12T15:05:12.798Z,27.05
2022-09-12T15:07:43.507Z,27.16
2022-09-12T15:10:26.978Z,27.07
2022-09-12T15:13:08.588Z,26.94
2022-09-12T15:15:39.797Z,27.23
2022-09-12T15:18:08.365Z,27.27
2022-09-12T15:20:39.994Z,27.14
2022-09-12T15:23:12.110Z,27.27
2022-09-12T15:25:38.839Z,27.24
2022-09-12T15:28:25.748Z,27.39
2022-09-12T15:30:54.994Z,27.50
2022-09-12T15:33:24.167Z,27.22
2022-09-12T15:35:58.676Z,26.89
2022-09-12T15:38:26.667Z,26.57
2022-09-12T15:40:54.048Z,26.55
2022-09-12T15:43:23.583Z,26.51
2022-09-12T15:45:51.746Z,26.42
2022-09-12T15:48:19.399Z,26.44
2022-09-12T15:50:47.735Z,26.25
2022-09-12T15:53:16.493Z,26.00
2022-09-12T15:55:43.691Z,25.94
2022-09-12T15:58:10.526Z,26.08
2022-09-12T16:00:37.164Z,26.02
2022-09-12T16:03:04.085Z,25.98
2022-09-12T16:05:32.373Z,25.98
2022-09-12T16:07:58.911Z,25.83
2022-09-12T16:10:29.667Z,25.71
2022-09-12T16:12:58.161Z,25.59
2022-09-12T16:15:25.769Z,25.45
2022-09-12T16:17:52.806Z,25.42
2022-09-12T16:20:20.693Z,25.35
2022-09-12T16:22:47.453Z,25.24
2022-09-12T16:25:13.994Z,25.20
2022-09-12T16:27:43.352Z,25.13
2022-09-12T16:30:10.503Z,25.02
2022-09-12T16:32:37.124Z,24.89
2022-09-12T16:35:12.522Z,24.76
2022-09-12T16:37:39.177Z,24.64
2022-09-12T16:40:06.688Z,24.53
2022-09-12T16:42:35.153Z,24.40
2022-09-12T16:45:03.844Z,24.29
2022-09-12T16:47:32.269Z,24.21
2022-09-12T16:49:59.687Z,24.14
2022-09-12T16:52:26.175Z,24.04
2022-09-12T16:54:52.846Z,23.96
2022-09-12T16:57:19.704Z,23.87
2022-09-12T16:59:46.267Z,23.75
2022-09-12T17:02:15.670Z,23.68
2022-09-12T17:04:42.373Z,23.59
2022-09-12T17:07:09.121Z,23.49
2022-09-12T17:09:37.468Z,23.41
2022-09-12T17:12:06.559Z,23.28
2022-09-12T17:14:33.122Z,23.12
2022-09-12T17:16:59.676Z,22.94
2022-09-12T17:19:29.947Z,22.77
2022-09-12T17:21:57.672Z,22.60
2022-09-12T17:24:24.533Z,22.43
2022-09-12T17:26:54.326Z,22.29
2022-09-12T17:29:21.022Z,22.11
2022-09-12T17:31:51.985Z,21.94
2022-09-12T17:34:25.343Z,21.76
2022-09-12T17:36:53.984Z,21.58
2022-09-12T17:39:20.547Z,21.40
2022-09-12T17:41:47.442Z,21.24
2022-09-12T17:44:15.188Z,21.11
2022-09-12T17:46:42.138Z,20.99
2022-09-12T17:49:14.651Z,20.88
2022-09-12T17:51:42.075Z,20.73
2022-09-12T17:54:20.399Z,20.62
2022-09-12T17:56:49.801Z,20.49
2022-09-12T17:59:21.607Z,20.37
2022-09-12T18:02:06.626Z,20.25
2022-09-12T18:04:38.924Z,20.09
2022-09-12T18:07:06.015Z,19.98
2022-09-12T18:09:34.544Z,19.89
2022-09-12T18:12:01.170Z,19.83
2022-09-12T18:14:28.283Z,19.76
2022-09-12T18:16:59.308Z,19.70
2022-09-12T18:19:27.322Z,19.62
2022-09-12T18:21:55.088Z,19.55
2022-09-12T18:24:22.261Z,19.47
2022-09-12T18:26:49.119Z,19.39
2022-09-12T18:29:20.070Z,19.31
2022-09-12T18:31:48.623Z,19.25
2022-09-12T18:34:18.296Z,19.17
2022-09-12T18:36:47.780Z,19.10
2022-09-12T18:39:15.055Z,19.03
2022-09-12T18:41:42.239Z,18.97
2022-09-12T18:44:11.709Z,18.88
2022-09-12T18:46:40.445Z,18.78
2022-09-12T18:49:07.814Z,18.71
2022-09-12T18:51:37.238Z,18.62
2022-09-12T18:54:06.629Z,18.56
2022-09-12T18:56:36.003Z,18.50
2022-09-12T18:59:05.333Z,18.43
2022-09-12T19:01:36.371Z,18.35
2022-09-12T19:04:05.898Z,18.26
2022-09-12T19:06:35.314Z,18.17
2022-09-12T19:09:07.388Z,18.10
2022-09-12T19:11:36.176Z,18.06
2022-09-12T19:14:02.877Z,18.02
2022-09-12T19:16:29.757Z,18.01
2022-09-12T19:18:57.089Z,17.92
2022-09-12T19:21:31.556Z,17.86
2022-09-12T19:24:00.423Z,17.80
2022-09-12T19:26:27.020Z,17.74
2022-09-12T19:28:56.251Z,17.65
2022-09-12T19:31:23.556Z,17.53
2022-09-12T19:33:52.203Z,17.43
2022-09-12T19:36:44.515Z,17.35
2022-09-12T19:39:08.506Z,17.29
2022-09-12T19:41:36.047Z,17.23
2022-09-12T19:44:03.543Z,17.14
2022-09-12T19:46:30.100Z,17.06
2022-09-12T19:48:58.544Z,17.00
2022-09-12T19:51:25.303Z,16.91
2022-09-12T19:53:52.506Z,16.83
2022-09-12T19:56:20.046Z,16.77
2022-09-12T19:58:52.045Z,16.70
2022-09-12T20:01:31.684Z,16.66
2022-09-12T20:03:58.743Z,16.62
2022-09-12T20:06:26.562Z,16.58
2022-09-12T20:08:53.760Z,16.51
2022-09-12T20:11:22.083Z,16.48
2022-09-12T20:13:48.954Z,16.43
2022-09-12T20:16:22.655Z,16.40
2022-09-12T20:18:57.296Z,16.40
2022-09-12T20:21:31.201Z,16.35
2022-09-12T20:24:06.631Z,16.31
2022-09-12T20:26:35.117Z,16.25
2022-09-12T20:29:02.034Z,16.21
2022-09-12T20:31:28.733Z,16.18
2022-09-12T20:33:55.763Z,16.19
2022-09-12T20:36:22.910Z,16.19
2022-09-12T20:38:54.452Z,16.20
2022-09-12T20:41:21.454Z,16.22
2022-09-12T20:43:52.377Z,16.19
2022-09-12T20:46:22.069Z,16.17
2022-09-12T20:48:49.962Z,16.14
2022-09-12T20:51:16.833Z,16.15
2022-09-12T20:53:43.387Z,16.10
2022-09-12T20:56:10.077Z,16.07
2022-09-12T20:58:39.391Z,16.04
2022-09-12T21:01:11.440Z,16.02
2022-09-12T21:03:40.936Z,15.98
2022-09-12T21:06:09.292Z,16.02
2022-09-12T21:08:37.111Z,16.05
2022-09-12T21:11:04.505Z,16.05
2022-09-12T21:13:31.761Z,16.04
2022-09-12T21:16:06.298Z,15.98
2022-09-12T21:18:33.985Z,15.99
2022-09-12T21:21:00.973Z,15.92
2022-09-12T21:23:34.009Z,15.78
2022-09-12T21:26:01.428Z,15.71
2022-09-12T21:28:28.305Z,15.67
2022-09-12T21:30:54.981Z,15.62
2022-09-12T21:33:22.377Z,15.60
2022-09-12T21:35:49.805Z,15.56
2022-09-12T21:38:17.493Z,15.54
2022-09-12T21:40:44.331Z,15.53
2022-09-12T21:43:13.017Z,15.51
2022-09-12T21:45:42.339Z,15.50
2022-09-12T21:48:09.562Z,15.47
2022-09-12T21:50:36.063Z,15.46
2022-09-12T21:53:04.401Z,15.46
2022-09-12T21:55:31.191Z,15.41
2022-09-12T21:57:57.771Z,15.36
2022-09-12T22:00:29.433Z,15.33
2022-09-12T22:02:56.324Z,15.33
2022-09-12T22:05:24.681Z,15.28
2022-09-12T22:07:57.861Z,15.25
2022-09-12T22:10:25.089Z,15.24
2022-09-12T22:12:51.763Z,15.22
2022-09-12T22:15:41.426Z,15.20
2022-09-12T22:18:08.066Z,15.20
2022-09-12T22:20:43.081Z,15.17
2022-09-12T22:23:31.038Z,15.12
2022-09-12T22:26:03.306Z,15.07
2022-09-12T22:28:32.129Z,15.04
2022-09-12T22:30:59.713Z,15.03
2022-09-12T22:33:28.431Z,15.02
2022-09-12T22:35:54.951Z,14.99
2022-09-12T22:38:22.284Z,15.00
2022-09-12T22:40:50.495Z,15.04
2022-09-12T22:43:17.222Z,15.06
2022-09-12T22:45:43.724Z,15.09
2022-09-12T22:48:10.428Z,15.06
2022-09-12T22:50:36.918Z,15.09
2022-09-12T22:53:03.396Z,15.13
2022-09-12T22:55:34.523Z,15.20
2022-09-12T22:58:01.398Z,15.19
2022-09-12T23:00:28.086Z,15.15
2022-09-12T23:02:56.644Z,15.20
2022-09-12T23:05:23.373Z,15.22
2022-09-12T23:07:51.046Z,15.29
2022-09-12T23:10:19.431Z,15.34
2022-09-12T23:12:46.106Z,15.32
2022-09-12T23:15:12.606Z,15.34
2022-09-12T23:17:39.346Z,15.37
2022-09-12T23:20:08.412Z,15.35
2022-09-12T23:22:37.269Z,15.33
2022-09-12T23:25:06.375Z,15.33
2022-09-12T23:27:32.887Z,15.32
2022-09-12T23:29:59.378Z,15.27
2022-09-12T23:32:38.621Z,15.24
2022-09-12T23:35:06.060Z,15.20
2022-09-12T23:37:32.525Z,15.18
2022-09-12T23:39:59.192Z,15.15
2022-09-12T23:42:25.723Z,15.14
2022-09-12T23:44:52.201Z,15.08
2022-09-12T23:47:23.185Z,15.02
2022-09-12T23:49:49.663Z,14.96
2022-09-12T23:52:16.197Z,14.91
2022-09-12T23:54:44.399Z,14.89
2022-09-12T23:57:11.109Z,14.91
2022-09-12T23:59:37.883Z,14.91
